メインページ
METAR-TAF:

METAR-TAF

空港 :

オルーミーイェ空港

オルーミーイェ, イラン

緯度: 37-32N, 経度: 045-05E, 海抜: 1297m

現時点の気象観測

当レポートは19分前の02:30(UTC)に作成
西/北西の風 2kt
気温 2°C
湿度 100%
気圧 1010 hPa
視程: 7000m
高度1500ftの雲は散在している
高度3000ftの雲はほとんどない, 積乱雲.
高度3500ftの雲は散在している
高度7000ftの曇り

METAR: OITR 260230Z 29002KT 7000 SCT015 FEW030CB SCT035 OVC070 02/02 Q1010

時間: 07:19 (02:49 UTC)

予報

当レポートは3時間49分前の23:00(UTC)に作成
予報は26日の 00時(UTC)から 27日の 06時(UTC)まで有効
西の風 10kt
視程: 3000m
高度2000ftの雲は散在している
高度3000ftの雲は散在している, 積乱雲.
高度3500ftの雲は散在している
高度7000ftの曇り
雪, 靄
26日の 00時(UTC)から 26日の 05時(UTC)まで一時的に
視程: 0700m
高度1500ftの千切れ雲あり
高度2500ftの雲はほとんどない, 積乱雲.
高度7000ftの曇り
26日の 06時(UTC)から 26日の 08時(UTC)まで徐々に
視程: 6000m
高度2000ftの雲は散在している
高度3000ftの雲はほとんどない, 積乱雲.
高度3500ftの雲は散在している
高度8000ftの千切れ雲あり
26日の 09時(UTC)から 26日の 15時(UTC)まで一時的に
視程: 5000m
雪, 雨
26日の 16時(UTC)から 26日の 18時(UTC)まで徐々に
26日の 21時(UTC)から 27日の 03時(UTC)まで一時的に
視程: 4000m

TAF: OITR 252300Z 2600/2706 28010KT 3000 SN BR SCT020 SCT030CB SCT035 OVC070 TEMPO 2600/2605 0700 FG BKN015 FEW025CB OVC070 BECMG 2606/2608 6000 SCT020 FEW030CB SCT035 BKN080 TEMPO 2609/2615 5000 SNRA BECMG 2616/2618 NSC TEMPO 2621/2703 4000 BR

4,000以上の空港の気象観測と天気予報(METAR報とTAF報)

利用可能な観測所は地図上に黄色い丸と赤い丸で示す。

丸の上にカーソルを重ねると観測所名を参照できる。

次にクリックすると気象観測と天気予報を参照できる。

マップの切り替え:黒色「×」印の緑ボタンをクリックして拡大、「-」印の緑ボタンをクリックして縮小、緑色の三角印をクリックして隣りの地図に切り替え


METAR-TAF: